sensor_id;sensor_type;location;lat;lon;timestamp;pressure;altitude;pressure_sealevel;temperature;humidity
68948;BME280;55996;49.546;7.400;2023-06-22T00:02:15;98946.88;;;21.74;100.00
68948;BME280;55996;49.546;7.400;2023-06-22T00:04:40;98932.44;;;21.89;100.00
68948;BME280;55996;49.546;7.400;2023-06-22T00:07:06;98911.50;;;21.36;100.00
68948;BME280;55996;49.546;7.400;2023-06-22T00:09:31;98876.38;;;21.20;100.00
68948;BME280;55996;49.546;7.400;2023-06-22T00:11:57;98835.19;;;21.25;100.00
68948;BME280;55996;49.546;7.400;2023-06-22T00:14:23;98751.03;;;21.13;100.00
68948;BME280;55996;49.546;7.400;2023-06-22T00:16:48;98720.44;;;20.72;100.00
68948;BME280;55996;49.546;7.400;2023-06-22T00:19:15;98727.53;;;20.95;100.00
68948;BME280;55996;49.546;7.400;2023-06-22T00:21:41;98752.88;;;21.24;100.00
68948;BME280;55996;49.546;7.400;2023-06-22T00:24:08;98784.44;;;21.28;100.00
68948;BME280;55996;49.546;7.400;2023-06-22T00:26:33;98787.84;;;21.42;100.00
68948;BME280;55996;49.546;7.400;2023-06-22T00:28:59;98783.28;;;21.55;100.00
68948;BME280;55996;49.546;7.400;2023-06-22T00:31:24;98792.47;;;21.51;100.00
68948;BME280;55996;49.546;7.400;2023-06-22T00:33:49;98793.78;;;21.45;100.00
68948;BME280;55996;49.546;7.400;2023-06-22T00:36:16;98799.22;;;21.44;100.00
68948;BME280;55996;49.546;7.400;2023-06-22T00:38:44;98779.91;;;21.53;100.00
68948;BME280;55996;49.546;7.400;2023-06-22T00:41:09;98774.66;;;21.29;100.00
68948;BME280;55996;49.546;7.400;2023-06-22T00:43:35;98778.28;;;21.39;100.00
68948;BME280;55996;49.546;7.400;2023-06-22T00:46:00;98782.00;;;21.25;100.00
68948;BME280;55996;49.546;7.400;2023-06-22T00:48:26;98785.91;;;21.44;100.00
68948;BME280;55996;49.546;7.400;2023-06-22T00:50:52;98760.41;;;21.41;100.00
68948;BME280;55996;49.546;7.400;2023-06-22T00:53:19;98748.94;;;21.41;100.00
68948;BME280;55996;49.546;7.400;2023-06-22T00:55:45;98759.53;;;21.29;100.00
68948;BME280;55996;49.546;7.400;2023-06-22T00:58:12;98751.59;;;21.41;100.00
68948;BME280;55996;49.546;7.400;2023-06-22T01:00:39;98733.69;;;21.54;100.00
68948;BME280;55996;49.546;7.400;2023-06-22T01:03:06;98718.19;;;21.25;100.00
68948;BME280;55996;49.546;7.400;2023-06-22T01:05:35;98734.63;;;21.31;100.00
68948;BME280;55996;49.546;7.400;2023-06-22T01:08:35;98710.34;;;21.24;100.00
68948;BME280;55996;49.546;7.400;2023-06-22T01:11:16;98699.34;;;21.28;100.00
68948;BME280;55996;49.546;7.400;2023-06-22T01:14:06;98714.69;;;21.25;100.00
68948;BME280;55996;49.546;7.400;2023-06-22T01:16:37;98717.22;;;21.26;100.00
68948;BME280;55996;49.546;7.400;2023-06-22T01:19:43;98698.88;;;21.46;100.00
68948;BME280;55996;49.546;7.400;2023-06-22T01:22:15;98704.06;;;21.25;100.00
68948;BME280;55996;49.546;7.400;2023-06-22T01:30:03;98708.91;;;21.42;100.00
68948;BME280;55996;49.546;7.400;2023-06-22T01:32:33;98705.84;;;21.24;100.00
68948;BME280;55996;49.546;7.400;2023-06-22T01:35:01;98720.16;;;21.35;100.00
68948;BME280;55996;49.546;7.400;2023-06-22T01:37:29;98743.84;;;21.38;100.00
68948;BME280;55996;49.546;7.400;2023-06-22T01:39:57;98749.94;;;21.16;100.00
68948;BME280;55996;49.546;7.400;2023-06-22T01:42:24;98748.25;;;21.15;100.00
68948;BME280;55996;49.546;7.400;2023-06-22T01:44:52;98737.38;;;21.06;100.00
68948;BME280;55996;49.546;7.400;2023-06-22T01:47:18;98744.28;;;21.20;100.00
68948;BME280;55996;49.546;7.400;2023-06-22T01:49:44;98745.75;;;21.24;100.00
68948;BME280;55996;49.546;7.400;2023-06-22T01:52:11;98745.63;;;21.26;100.00
68948;BME280;55996;49.546;7.400;2023-06-22T01:54:39;98738.97;;;21.20;100.00
68948;BME280;55996;49.546;7.400;2023-06-22T01:57:05;98729.59;;;21.03;100.00
68948;BME280;55996;49.546;7.400;2023-06-22T02:00:01;98728.09;;;21.23;100.00
68948;BME280;55996;49.546;7.400;2023-06-22T02:02:33;98708.38;;;21.15;100.00
68948;BME280;55996;49.546;7.400;2023-06-22T02:05:10;98712.09;;;21.01;100.00
68948;BME280;55996;49.546;7.400;2023-06-22T02:07:49;98690.97;;;21.10;100.00
68948;BME280;55996;49.546;7.400;2023-06-22T02:10:19;98691.13;;;21.20;100.00
68948;BME280;55996;49.546;7.400;2023-06-22T02:12:46;98692.53;;;21.13;100.00
68948;BME280;55996;49.546;7.400;2023-06-22T02:15:13;98688.66;;;21.17;100.00
68948;BME280;55996;49.546;7.400;2023-06-22T02:17:39;98684.59;;;21.24;100.00
68948;BME280;55996;49.546;7.400;2023-06-22T02:20:14;98686.75;;;21.19;100.00
68948;BME280;55996;49.546;7.400;2023-06-22T02:22:40;98680.81;;;21.16;100.00
68948;BME280;55996;49.546;7.400;2023-06-22T02:25:06;98673.78;;;21.03;100.00
68948;BME280;55996;49.546;7.400;2023-06-22T02:27:31;98668.47;;;21.03;100.00
68948;BME280;55996;49.546;7.400;2023-06-22T02:29:57;98669.81;;;21.09;100.00
68948;BME280;55996;49.546;7.400;2023-06-22T02:32:22;98671.75;;;21.07;100.00
68948;BME280;55996;49.546;7.400;2023-06-22T02:34:48;98664.97;;;21.03;100.00
68948;BME280;55996;49.546;7.400;2023-06-22T02:37:14;98668.75;;;21.11;100.00
68948;BME280;55996;49.546;7.400;2023-06-22T02:39:42;98656.75;;;21.06;100.00
68948;BME280;55996;49.546;7.400;2023-06-22T02:42:08;98662.06;;;21.06;100.00
68948;BME280;55996;49.546;7.400;2023-06-22T02:44:36;98659.03;;;20.88;100.00
68948;BME280;55996;49.546;7.400;2023-06-22T02:47:01;98655.50;;;20.87;100.00
68948;BME280;55996;49.546;7.400;2023-06-22T02:49:27;98654.91;;;20.84;100.00
68948;BME280;55996;49.546;7.400;2023-06-22T02:51:52;98648.38;;;20.76;100.00
68948;BME280;55996;49.546;7.400;2023-06-22T02:54:18;98648.59;;;20.73;100.00
68948;BME280;55996;49.546;7.400;2023-06-22T02:56:44;98644.84;;;20.76;100.00
68948;BME280;55996;49.546;7.400;2023-06-22T02:59:10;98657.47;;;20.85;100.00
68948;BME280;55996;49.546;7.400;2023-06-22T03:01:36;98643.66;;;20.80;100.00
68948;BME280;55996;49.546;7.400;2023-06-22T03:04:10;98642.59;;;20.83;100.00
68948;BME280;55996;49.546;7.400;2023-06-22T03:06:36;98651.13;;;20.75;100.00
68948;BME280;55996;49.546;7.400;2023-06-22T03:09:05;98643.84;;;20.66;100.00
68948;BME280;55996;49.546;7.400;2023-06-22T03:11:31;98630.31;;;20.69;100.00
68948;BME280;55996;49.546;7.400;2023-06-22T03:13:56;98643.09;;;20.63;100.00
68948;BME280;55996;49.546;7.400;2023-06-22T03:16:22;98635.59;;;20.57;100.00
68948;BME280;55996;49.546;7.400;2023-06-22T03:18:47;98631.53;;;20.40;100.00
68948;BME280;55996;49.546;7.400;2023-06-22T03:21:13;98636.38;;;20.46;100.00
68948;BME280;55996;49.546;7.400;2023-06-22T03:23:41;98636.00;;;20.40;100.00
68948;BME280;55996;49.546;7.400;2023-06-22T03:26:06;98642.69;;;20.45;100.00
68948;BME280;55996;49.546;7.400;2023-06-22T03:28:32;98648.09;;;20.44;100.00
68948;BME280;55996;49.546;7.400;2023-06-22T03:30:58;98652.41;;;20.34;100.00
68948;BME280;55996;49.546;7.400;2023-06-22T03:33:23;98649.19;;;20.17;100.00
68948;BME280;55996;49.546;7.400;2023-06-22T03:35:49;98639.03;;;20.11;100.00
68948;BME280;55996;49.546;7.400;2023-06-22T03:38:16;98637.09;;;19.89;100.00
68948;BME280;55996;49.546;7.400;2023-06-22T03:40:41;98641.00;;;19.96;100.00
68948;BME280;55996;49.546;7.400;2023-06-22T03:43:07;98639.41;;;19.93;100.00
68948;BME280;55996;49.546;7.400;2023-06-22T03:45:32;98642.28;;;19.90;100.00
68948;BME280;55996;49.546;7.400;2023-06-22T03:47:57;98638.25;;;19.84;100.00
68948;BME280;55996;49.546;7.400;2023-06-22T03:50:23;98644.16;;;20.01;100.00
68948;BME280;55996;49.546;7.400;2023-06-22T03:52:48;98641.88;;;20.08;100.00
68948;BME280;55996;49.546;7.400;2023-06-22T03:55:14;98651.25;;;20.00;100.00
68948;BME280;55996;49.546;7.400;2023-06-22T03:57:39;98662.09;;;19.97;100.00
68948;BME280;55996;49.546;7.400;2023-06-22T04:00:05;98648.41;;;19.91;100.00
68948;BME280;55996;49.546;7.400;2023-06-22T04:02:31;98650.13;;;19.92;100.00
68948;BME280;55996;49.546;7.400;2023-06-22T04:04:56;98647.47;;;19.79;100.00
68948;BME280;55996;49.546;7.400;2023-06-22T04:07:22;98649.72;;;19.85;100.00
68948;BME280;55996;49.546;7.400;2023-06-22T04:09:47;98649.78;;;19.96;100.00
68948;BME280;55996;49.546;7.400;2023-06-22T04:12:13;98644.81;;;19.92;100.00
68948;BME280;55996;49.546;7.400;2023-06-22T04:14:38;98645.75;;;19.91;100.00
68948;BME280;55996;49.546;7.400;2023-06-22T04:17:04;98649.59;;;19.87;100.00
68948;BME280;55996;49.546;7.400;2023-06-22T04:19:30;98641.00;;;19.83;100.00
68948;BME280;55996;49.546;7.400;2023-06-22T04:21:55;98651.09;;;19.78;100.00
68948;BME280;55996;49.546;7.400;2023-06-22T04:24:20;98653.63;;;19.79;100.00
68948;BME280;55996;49.546;7.400;2023-06-22T04:26:46;98645.56;;;19.81;100.00
68948;BME280;55996;49.546;7.400;2023-06-22T04:29:12;98658.44;;;19.87;100.00
68948;BME280;55996;49.546;7.400;2023-06-22T04:31:38;98662.25;;;19.70;100.00
68948;BME280;55996;49.546;7.400;2023-06-22T04:34:05;98656.50;;;19.89;100.00
68948;BME280;55996;49.546;7.400;2023-06-22T04:36:39;98647.75;;;20.00;100.00
68948;BME280;55996;49.546;7.400;2023-06-22T04:39:07;98644.84;;;20.16;100.00
68948;BME280;55996;49.546;7.400;2023-06-22T04:41:36;98644.59;;;20.19;100.00
68948;BME280;55996;49.546;7.400;2023-06-22T04:44:19;98638.66;;;20.15;100.00
68948;BME280;55996;49.546;7.400;2023-06-22T04:46:55;98632.84;;;20.35;100.00
68948;BME280;55996;49.546;7.400;2023-06-22T04:49:26;98628.75;;;20.30;100.00
68948;BME280;55996;49.546;7.400;2023-06-22T04:51:58;98621.78;;;20.41;100.00
68948;BME280;55996;49.546;7.400;2023-06-22T04:54:23;98624.94;;;20.46;100.00
68948;BME280;55996;49.546;7.400;2023-06-22T04:56:49;98608.53;;;20.52;100.00
68948;BME280;55996;49.546;7.400;2023-06-22T04:59:26;98622.31;;;20.57;100.00
68948;BME280;55996;49.546;7.400;2023-06-22T05:02:01;98615.22;;;20.69;100.00
68948;BME280;55996;49.546;7.400;2023-06-22T05:04:29;98621.84;;;20.63;100.00
68948;BME280;55996;49.546;7.400;2023-06-22T05:06:58;98615.66;;;20.87;100.00
68948;BME280;55996;49.546;7.400;2023-06-22T05:09:25;98612.03;;;21.00;100.00
68948;BME280;55996;49.546;7.400;2023-06-22T05:11:50;98606.38;;;21.16;100.00
68948;BME280;55996;49.546;7.400;2023-06-22T05:14:17;98604.81;;;21.13;100.00
68948;BME280;55996;49.546;7.400;2023-06-22T05:16:43;98615.09;;;21.29;100.00
68948;BME280;55996;49.546;7.400;2023-06-22T05:19:09;98603.84;;;21.37;100.00
68948;BME280;55996;49.546;7.400;2023-06-22T05:21:35;98608.06;;;21.39;100.00
68948;BME280;55996;49.546;7.400;2023-06-22T05:24:00;98612.81;;;21.47;100.00
68948;BME280;55996;49.546;7.400;2023-06-22T05:26:28;98606.00;;;21.54;100.00
68948;BME280;55996;49.546;7.400;2023-06-22T05:28:54;98611.31;;;21.54;100.00
68948;BME280;55996;49.546;7.400;2023-06-22T05:31:20;98615.09;;;21.63;100.00
68948;BME280;55996;49.546;7.400;2023-06-22T05:33:46;98615.22;;;21.73;100.00
68948;BME280;55996;49.546;7.400;2023-06-22T05:36:12;98616.28;;;21.82;100.00
68948;BME280;55996;49.546;7.400;2023-06-22T05:38:39;98603.38;;;21.77;100.00
68948;BME280;55996;49.546;7.400;2023-06-22T05:41:04;98609.06;;;21.61;100.00
68948;BME280;55996;49.546;7.400;2023-06-22T05:43:30;98614.59;;;21.47;100.00
68948;BME280;55996;49.546;7.400;2023-06-22T05:45:56;98620.28;;;21.42;100.00
68948;BME280;55996;49.546;7.400;2023-06-22T05:48:21;98614.25;;;21.63;100.00
68948;BME280;55996;49.546;7.400;2023-06-22T05:50:47;98615.59;;;21.57;100.00
68948;BME280;55996;49.546;7.400;2023-06-22T05:53:12;98620.91;;;21.80;100.00
68948;BME280;55996;49.546;7.400;2023-06-22T05:55:38;98613.75;;;21.80;100.00
68948;BME280;55996;49.546;7.400;2023-06-22T05:58:03;98604.31;;;21.87;100.00
68948;BME280;55996;49.546;7.400;2023-06-22T06:00:30;98610.75;;;21.73;100.00
68948;BME280;55996;49.546;7.400;2023-06-22T06:02:55;98603.59;;;21.74;100.00
68948;BME280;55996;49.546;7.400;2023-06-22T06:05:20;98603.69;;;21.84;100.00
68948;BME280;55996;49.546;7.400;2023-06-22T06:07:46;98612.25;;;21.99;100.00
68948;BME280;55996;49.546;7.400;2023-06-22T06:10:12;98613.66;;;22.14;100.00
68948;BME280;55996;49.546;7.400;2023-06-22T06:12:38;98608.34;;;22.14;100.00
68948;BME280;55996;49.546;7.400;2023-06-22T06:15:04;98613.88;;;22.22;100.00
68948;BME280;55996;49.546;7.400;2023-06-22T06:17:30;98617.22;;;22.36;100.00
68948;BME280;55996;49.546;7.400;2023-06-22T06:19:55;98607.03;;;22.41;100.00
68948;BME280;55996;49.546;7.400;2023-06-22T06:22:21;98605.94;;;22.44;100.00
68948;BME280;55996;49.546;7.400;2023-06-22T06:24:48;98608.50;;;22.34;100.00
68948;BME280;55996;49.546;7.400;2023-06-22T06:27:14;98595.13;;;22.56;100.00
68948;BME280;55996;49.546;7.400;2023-06-22T06:29:39;98595.69;;;22.28;100.00
68948;BME280;55996;49.546;7.400;2023-06-22T06:32:05;98602.84;;;22.60;100.00
68948;BME280;55996;49.546;7.400;2023-06-22T06:34:31;98614.16;;;22.73;100.00
68948;BME280;55996;49.546;7.400;2023-06-22T06:36:57;98608.66;;;22.96;100.00
68948;BME280;55996;49.546;7.400;2023-06-22T06:39:22;98605.59;;;23.21;100.00
68948;BME280;55996;49.546;7.400;2023-06-22T06:41:48;98597.25;;;23.36;100.00
68948;BME280;55996;49.546;7.400;2023-06-22T06:44:13;98600.41;;;23.51;100.00
68948;BME280;55996;49.546;7.400;2023-06-22T06:46:39;98601.13;;;23.53;100.00
68948;BME280;55996;49.546;7.400;2023-06-22T06:49:05;98592.84;;;23.66;100.00
68948;BME280;55996;49.546;7.400;2023-06-22T06:51:30;98584.88;;;23.85;100.00
68948;BME280;55996;49.546;7.400;2023-06-22T06:53:56;98592.09;;;24.05;100.00
68948;BME280;55996;49.546;7.400;2023-06-22T06:56:21;98581.72;;;24.11;100.00
68948;BME280;55996;49.546;7.400;2023-06-22T06:58:47;98592.84;;;24.36;100.00
68948;BME280;55996;49.546;7.400;2023-06-22T07:01:12;98591.97;;;24.26;100.00
68948;BME280;55996;49.546;7.400;2023-06-22T07:03:38;98586.06;;;24.32;100.00
68948;BME280;55996;49.546;7.400;2023-06-22T07:06:04;98577.63;;;24.37;100.00
68948;BME280;55996;49.546;7.400;2023-06-22T07:08:29;98581.00;;;24.09;100.00
68948;BME280;55996;49.546;7.400;2023-06-22T07:10:55;98564.84;;;24.40;100.00
68948;BME280;55996;49.546;7.400;2023-06-22T07:13:20;98559.03;;;24.55;100.00
68948;BME280;55996;49.546;7.400;2023-06-22T07:15:46;98567.47;;;24.60;100.00
68948;BME280;55996;49.546;7.400;2023-06-22T07:18:11;98573.41;;;24.34;100.00
68948;BME280;55996;49.546;7.400;2023-06-22T07:20:37;98571.56;;;24.54;100.00
68948;BME280;55996;49.546;7.400;2023-06-22T07:23:04;98570.88;;;24.42;100.00
68948;BME280;55996;49.546;7.400;2023-06-22T07:25:30;98560.16;;;24.52;100.00
68948;BME280;55996;49.546;7.400;2023-06-22T07:28:05;98559.44;;;24.79;100.00
68948;BME280;55996;49.546;7.400;2023-06-22T07:30:32;98557.91;;;24.67;100.00
68948;BME280;55996;49.546;7.400;2023-06-22T07:32:58;98556.81;;;24.30;100.00
68948;BME280;55996;49.546;7.400;2023-06-22T07:35:24;98543.44;;;24.50;100.00
68948;BME280;55996;49.546;7.400;2023-06-22T07:37:50;98544.69;;;24.56;100.00
68948;BME280;55996;49.546;7.400;2023-06-22T07:40:15;98544.41;;;24.59;100.00
68948;BME280;55996;49.546;7.400;2023-06-22T07:42:41;98545.91;;;24.91;100.00
68948;BME280;55996;49.546;7.400;2023-06-22T07:45:07;98548.56;;;25.01;100.00
68948;BME280;55996;49.546;7.400;2023-06-22T07:47:36;98546.50;;;24.85;100.00
68948;BME280;55996;49.546;7.400;2023-06-22T07:50:02;98543.47;;;24.97;100.00
68948;BME280;55996;49.546;7.400;2023-06-22T07:52:28;98543.38;;;25.27;96.54
68948;BME280;55996;49.546;7.400;2023-06-22T07:54:54;98537.19;;;25.17;95.13
68948;BME280;55996;49.546;7.400;2023-06-22T07:57:20;98536.28;;;24.98;97.31
68948;BME280;55996;49.546;7.400;2023-06-22T07:59:45;98531.56;;;25.48;97.77
68948;BME280;55996;49.546;7.400;2023-06-22T08:02:11;98525.84;;;25.42;93.46
68948;BME280;55996;49.546;7.400;2023-06-22T08:04:37;98520.53;;;25.60;93.63
68948;BME280;55996;49.546;7.400;2023-06-22T08:07:02;98514.25;;;25.88;95.21
68948;BME280;55996;49.546;7.400;2023-06-22T08:09:30;98513.19;;;25.35;94.23
68948;BME280;55996;49.546;7.400;2023-06-22T08:11:56;98509.38;;;25.37;95.24
68948;BME280;55996;49.546;7.400;2023-06-22T08:14:23;98501.53;;;25.54;95.18
68948;BME280;55996;49.546;7.400;2023-06-22T08:16:48;98492.72;;;25.16;97.52
68948;BME280;55996;49.546;7.400;2023-06-22T08:19:14;98488.53;;;25.41;98.23
68948;BME280;55996;49.546;7.400;2023-06-22T08:21:39;98489.50;;;25.40;95.52
68948;BME280;55996;49.546;7.400;2023-06-22T08:24:05;98485.78;;;25.51;96.17
68948;BME280;55996;49.546;7.400;2023-06-22T08:26:32;98489.09;;;25.81;95.27
68948;BME280;55996;49.546;7.400;2023-06-22T08:29:01;98487.03;;;26.10;91.72
68948;BME280;55996;49.546;7.400;2023-06-22T08:31:27;98481.28;;;26.50;90.48
68948;BME280;55996;49.546;7.400;2023-06-22T08:33:52;98474.31;;;26.65;87.83
68948;BME280;55996;49.546;7.400;2023-06-22T08:36:17;98494.16;;;26.20;89.22
68948;BME280;55996;49.546;7.400;2023-06-22T08:38:43;98498.88;;;26.26;87.99
68948;BME280;55996;49.546;7.400;2023-06-22T08:41:09;98499.25;;;26.13;90.53
68948;BME280;55996;49.546;7.400;2023-06-22T08:43:35;98488.91;;;25.82;92.26
68948;BME280;55996;49.546;7.400;2023-06-22T08:46:00;98478.13;;;25.56;93.32
68948;BME280;55996;49.546;7.400;2023-06-22T08:48:27;98477.06;;;25.49;92.84
68948;BME280;55996;49.546;7.400;2023-06-22T08:50:53;98474.16;;;25.78;91.83
68948;BME280;55996;49.546;7.400;2023-06-22T08:53:18;98458.38;;;25.93;88.95
68948;BME280;55996;49.546;7.400;2023-06-22T08:55:44;98476.28;;;26.55;86.44
68948;BME280;55996;49.546;7.400;2023-06-22T08:58:10;98459.28;;;26.72;85.11
68948;BME280;55996;49.546;7.400;2023-06-22T09:00:35;98454.09;;;27.14;77.25
68948;BME280;55996;49.546;7.400;2023-06-22T09:03:01;98468.16;;;27.08;75.27
68948;BME280;55996;49.546;7.400;2023-06-22T09:05:26;98458.16;;;27.18;69.79
68948;BME280;55996;49.546;7.400;2023-06-22T09:07:52;98463.84;;;27.15;69.70
68948;BME280;55996;49.546;7.400;2023-06-22T09:10:19;98455.56;;;27.43;71.98
68948;BME280;55996;49.546;7.400;2023-06-22T09:12:45;98460.19;;;27.24;69.61
68948;BME280;55996;49.546;7.400;2023-06-22T09:15:10;98447.03;;;27.56;69.06
68948;BME280;55996;49.546;7.400;2023-06-22T09:17:36;98451.41;;;27.73;67.18
68948;BME280;55996;49.546;7.400;2023-06-22T09:20:02;98446.53;;;27.93;65.90
68948;BME280;55996;49.546;7.400;2023-06-22T09:22:31;98438.31;;;27.70;67.17
68948;BME280;55996;49.546;7.400;2023-06-22T09:24:58;98455.28;;;27.87;66.80
68948;BME280;55996;49.546;7.400;2023-06-22T09:27:25;98452.09;;;28.00;68.33
68948;BME280;55996;49.546;7.400;2023-06-22T09:29:50;98447.72;;;27.58;68.33
68948;BME280;55996;49.546;7.400;2023-06-22T09:32:16;98451.75;;;27.70;68.18
68948;BME280;55996;49.546;7.400;2023-06-22T09:34:41;98444.69;;;27.69;68.06
68948;BME280;55996;49.546;7.400;2023-06-22T09:37:07;98433.78;;;27.87;68.01
68948;BME280;55996;49.546;7.400;2023-06-22T09:39:32;98428.22;;;27.72;68.17
68948;BME280;55996;49.546;7.400;2023-06-22T09:41:59;98435.97;;;27.67;68.06
68948;BME280;55996;49.546;7.400;2023-06-22T09:44:25;98419.00;;;27.75;68.16
68948;BME280;55996;49.546;7.400;2023-06-22T09:46:50;98409.09;;;27.67;68.73
68948;BME280;55996;49.546;7.400;2023-06-22T09:49:16;98407.59;;;27.89;71.24
68948;BME280;55996;49.546;7.400;2023-06-22T09:51:41;98407.78;;;28.12;67.16
68948;BME280;55996;49.546;7.400;2023-06-22T09:54:06;98407.66;;;28.62;66.43
68948;BME280;55996;49.546;7.400;2023-06-22T09:56:32;98402.78;;;29.28;67.23
68948;BME280;55996;49.546;7.400;2023-06-22T09:58:57;98398.22;;;29.37;63.70
68948;BME280;55996;49.546;7.400;2023-06-22T10:01:23;98390.31;;;29.36;62.68
68948;BME280;55996;49.546;7.400;2023-06-22T10:03:49;98390.75;;;29.71;61.25
68948;BME280;55996;49.546;7.400;2023-06-22T10:06:15;98387.66;;;29.27;61.89
68948;BME280;55996;49.546;7.400;2023-06-22T10:08:40;98384.84;;;29.90;62.11
68948;BME280;55996;49.546;7.400;2023-06-22T10:11:06;98384.31;;;29.72;60.02
68948;BME280;55996;49.546;7.400;2023-06-22T10:13:31;98374.44;;;29.64;62.48
68948;BME280;55996;49.546;7.400;2023-06-22T10:15:57;98382.78;;;30.31;60.96
68948;BME280;55996;49.546;7.400;2023-06-22T10:18:22;98378.69;;;30.65;59.24
68948;BME280;55996;49.546;7.400;2023-06-22T10:20:49;98370.31;;;30.45;58.02
68948;BME280;55996;49.546;7.400;2023-06-22T10:23:20;98360.94;;;30.40;58.56
68948;BME280;55996;49.546;7.400;2023-06-22T10:25:46;98363.19;;;30.88;57.33
68948;BME280;55996;49.546;7.400;2023-06-22T10:28:12;98358.63;;;31.04;55.46
68948;BME280;55996;49.546;7.400;2023-06-22T10:30:41;98358.09;;;30.94;54.79
68948;BME280;55996;49.546;7.400;2023-06-22T10:33:07;98365.00;;;30.81;56.51
68948;BME280;55996;49.546;7.400;2023-06-22T10:35:33;98362.59;;;31.45;54.65
68948;BME280;55996;49.546;7.400;2023-06-22T10:37:59;98363.53;;;31.37;54.41
68948;BME280;55996;49.546;7.400;2023-06-22T10:40:25;98350.97;;;31.66;52.03
68948;BME280;55996;49.546;7.400;2023-06-22T10:42:50;98348.78;;;31.83;52.32
68948;BME280;55996;49.546;7.400;2023-06-22T10:45:16;98350.84;;;31.59;52.81
68948;BME280;55996;49.546;7.400;2023-06-22T10:47:41;98353.72;;;32.01;50.93
68948;BME280;55996;49.546;7.400;2023-06-22T10:50:07;98343.13;;;32.34;48.97
68948;BME280;55996;49.546;7.400;2023-06-22T10:52:33;98332.91;;;32.78;48.48
68948;BME280;55996;49.546;7.400;2023-06-22T10:54:59;98336.53;;;32.50;49.27
68948;BME280;55996;49.546;7.400;2023-06-22T10:57:24;98330.91;;;32.10;50.19
68948;BME280;55996;49.546;7.400;2023-06-22T10:59:50;98332.53;;;32.75;52.50
68948;BME280;55996;49.546;7.400;2023-06-22T11:02:15;98329.03;;;32.46;49.87
68948;BME280;55996;49.546;7.400;2023-06-22T11:04:41;98329.38;;;32.29;49.17
68948;BME280;55996;49.546;7.400;2023-06-22T11:07:06;98313.66;;;32.60;50.52
68948;BME280;55996;49.546;7.400;2023-06-22T11:09:31;98310.75;;;33.23;48.72
68948;BME280;55996;49.546;7.400;2023-06-22T11:11:57;98312.63;;;33.16;47.45
68948;BME280;55996;49.546;7.400;2023-06-22T11:14:24;98304.13;;;32.71;48.08
68948;BME280;55996;49.546;7.400;2023-06-22T11:16:50;98313.94;;;32.72;48.71
68948;BME280;55996;49.546;7.400;2023-06-22T11:19:15;98312.19;;;32.57;49.05
68948;BME280;55996;49.546;7.400;2023-06-22T11:21:41;98311.25;;;32.78;47.71
68948;BME280;55996;49.546;7.400;2023-06-22T11:24:06;98314.75;;;33.47;48.57
68948;BME280;55996;49.546;7.400;2023-06-22T11:26:32;98312.22;;;33.66;46.50
68948;BME280;55996;49.546;7.400;2023-06-22T11:28:58;98308.06;;;33.63;45.12
68948;BME280;55996;49.546;7.400;2023-06-22T11:31:24;98305.94;;;34.13;46.32
68948;BME280;55996;49.546;7.400;2023-06-22T11:33:50;98298.47;;;33.94;43.76
68948;BME280;55996;49.546;7.400;2023-06-22T11:36:16;98312.19;;;32.57;46.97
68948;BME280;55996;49.546;7.400;2023-06-22T11:38:42;98310.28;;;32.44;47.67
68948;BME280;55996;49.546;7.400;2023-06-22T11:41:08;98296.16;;;32.49;47.40
68948;BME280;55996;49.546;7.400;2023-06-22T11:43:34;98296.69;;;32.79;47.02
68948;BME280;55996;49.546;7.400;2023-06-22T11:46:01;98291.34;;;33.06;47.57
68948;BME280;55996;49.546;7.400;2023-06-22T11:48:27;98295.94;;;33.19;46.40
68948;BME280;55996;49.546;7.400;2023-06-22T11:50:53;98308.91;;;33.51;46.46
68948;BME280;55996;49.546;7.400;2023-06-22T11:53:20;98303.69;;;34.03;44.79
68948;BME280;55996;49.546;7.400;2023-06-22T11:55:47;98299.59;;;34.32;45.35
68948;BME280;55996;49.546;7.400;2023-06-22T11:58:12;98287.25;;;34.95;44.55
68948;BME280;55996;49.546;7.400;2023-06-22T12:00:38;98284.16;;;34.85;43.22
68948;BME280;55996;49.546;7.400;2023-06-22T12:03:03;98280.00;;;34.75;40.71
68948;BME280;55996;49.546;7.400;2023-06-22T12:05:29;98265.28;;;33.99;42.98
68948;BME280;55996;49.546;7.400;2023-06-22T12:07:55;98262.31;;;34.66;43.47
68948;BME280;55996;49.546;7.400;2023-06-22T12:10:22;98252.41;;;34.47;44.65
68948;BME280;55996;49.546;7.400;2023-06-22T12:12:47;98229.75;;;34.14;43.63
68948;BME280;55996;49.546;7.400;2023-06-22T12:15:13;98239.13;;;34.25;43.64
68948;BME280;55996;49.546;7.400;2023-06-22T12:17:39;98239.56;;;34.08;43.82
68948;BME280;55996;49.546;7.400;2023-06-22T12:20:05;98249.47;;;33.69;44.56
68948;BME280;55996;49.546;7.400;2023-06-22T12:22:35;98255.56;;;33.44;45.46
68948;BME280;55996;49.546;7.400;2023-06-22T12:25:03;98255.47;;;32.77;44.37
68948;BME280;55996;49.546;7.400;2023-06-22T12:27:29;98262.59;;;32.01;46.28
68948;BME280;55996;49.546;7.400;2023-06-22T12:29:56;98257.16;;;32.30;46.62
68948;BME280;55996;49.546;7.400;2023-06-22T12:32:21;98259.47;;;32.33;46.61
68948;BME280;55996;49.546;7.400;2023-06-22T12:34:47;98262.50;;;32.16;47.43
68948;BME280;55996;49.546;7.400;2023-06-22T12:37:12;98262.31;;;32.25;46.48
68948;BME280;55996;49.546;7.400;2023-06-22T12:39:41;98260.09;;;32.35;48.13
68948;BME280;55996;49.546;7.400;2023-06-22T12:42:07;98258.28;;;32.49;46.76
68948;BME280;55996;49.546;7.400;2023-06-22T12:44:34;98259.41;;;32.19;48.36
68948;BME280;55996;49.546;7.400;2023-06-22T12:47:00;98261.13;;;31.99;49.19
68948;BME280;55996;49.546;7.400;2023-06-22T12:49:25;98255.66;;;32.21;49.12
68948;BME280;55996;49.546;7.400;2023-06-22T12:51:51;98241.94;;;32.22;49.06
68948;BME280;55996;49.546;7.400;2023-06-22T12:54:16;98231.09;;;32.91;45.97
68948;BME280;55996;49.546;7.400;2023-06-22T12:56:42;98234.25;;;33.08;45.14
68948;BME280;55996;49.546;7.400;2023-06-22T12:59:10;98216.34;;;33.40;44.83